Airfield :
LOGIN :

Register | Disclaimer

   EN    FR    IT 

 










Legend :    VFR   Marginal VFR   IFR   Intensive IFR   Very Intensive IFR
Visi :
Ceiling :
>= 8 km
>= 3000ft
5 to 8 km
1000 to 3000 ft
1500m to 5 km
500 to 1000 ft
800 to 1500m
200 to 500 ft
< 800m
< 200 ft
Symbols :   Thunderstorms  Fog  Heavy snow  Heavy precipitations  Wind > 20 kt
SIGMETs :     Misc.  Thunderstorms  Icing  Turbulence  Mountain Waves  Volcanic Ashes






- Airport Elevation : 174 ft
- IATA code : RYG


ENRY - Moss , Rygge

CURRENT METAR :
  • 101150Z 08005KT 030V140 9999 -SHRA SCT030 15/09 Q1008 TEMPO SHRA

EXPIRED METARs :
  • 101120Z 18006KT 9999 BKN030 14/10 Q1008 TEMPO TSRA
  • 101050Z 21008KT 170V240 9999 VCTS BKN030 13/09 Q1008 TEMPO TSRA
  • 101020Z 18010KT 7000 TS BKN026CB 14/10 Q1008 TEMPO 4000 TSRA
  • 100950Z 23007KT 9999 VCTS BKN022CB 15/10 Q1008 TEMPO 4000 TSRA
  • 100920Z 30006KT 260V330 9999 VCSH FEW029CB SCT110 17/11 Q1008 TEMPO 4000 TSRA

TAF TAF ENRY
Valid from the 10 at 12:00 until the 11 at 12:00 UTC


1012/1112 VRB07KT 9999 FEW030TCU BKN040
TEMPO 1012/1018 SHRA SCT020CB BKN030
PROB40
TEMPO 1012/1018 4000 TSRA
TEMPO 1104/1107 SHRA FEW020CB BKN030
BECMG 1105/1107 34012KT



MET'MAP, your aeronautical weather chart ! - Copyright ORBIFLY December 2007 - Disclaimer

ORBIFLY MET'MAP TEAM :

Programming & Development : Alexandra Zaïnal
Concept & original design : Baudouin d'Aumeries
Assistance for programming : Marc-Olivier Méhu
Technical & hardware support : Manuel Goepfert

Contact : metmap@orbifly.com




SOURCES & CREDITS :

   NOAA